sensor_id;sensor_type;location;lat;lon;timestamp;temperature;humidity
1888;DHT22;944;51.574;6.980;2023-08-07T04:50:04;12.40;99.90
1888;DHT22;944;51.574;6.980;2023-08-07T04:52:31;12.30;99.90
1888;DHT22;944;51.574;6.980;2023-08-07T04:54:58;12.20;99.90
1888;DHT22;944;51.574;6.980;2023-08-07T04:57:25;12.30;99.90
1888;DHT22;944;51.574;6.980;2023-08-07T05:03:34;12.40;99.90
1888;DHT22;944;51.574;6.980;2023-08-07T05:06:12;12.30;99.90
1888;DHT22;944;51.574;6.980;2023-08-07T05:08:41;12.30;99.90
1888;DHT22;944;51.574;6.980;2023-08-07T05:11:11;12.20;99.90
1888;DHT22;944;51.574;6.980;2023-08-07T05:13:38;12.30;99.90
1888;DHT22;944;51.574;6.980;2023-08-07T05:16:05;12.40;99.90
1888;DHT22;944;51.574;6.980;2023-08-07T05:18:33;12.40;99.90
1888;DHT22;944;51.574;6.980;2023-08-07T05:21:00;12.30;99.90
1888;DHT22;944;51.574;6.980;2023-08-07T05:23:29;12.20;99.90
1888;DHT22;944;51.574;6.980;2023-08-07T05:26:00;12.30;99.90
1888;DHT22;944;51.574;6.980;2023-08-07T05:28:29;12.30;99.90
1888;DHT22;944;51.574;6.980;2023-08-07T05:30:56;12.40;99.90
1888;DHT22;944;51.574;6.980;2023-08-07T05:33:32;12.40;99.90
1888;DHT22;944;51.574;6.980;2023-08-07T05:36:26;12.50;99.90
1888;DHT22;944;51.574;6.980;2023-08-07T05:38:58;12.50;99.90
1888;DHT22;944;51.574;6.980;2023-08-07T05:41:41;12.50;99.90
1888;DHT22;944;51.574;6.980;2023-08-07T05:44:23;12.50;99.90
1888;DHT22;944;51.574;6.980;2023-08-07T12:21:06;18.10;99.90
1888;DHT22;944;51.574;6.980;2023-08-07T12:22:29;18.40;99.90
1888;DHT22;944;51.574;6.980;2023-08-07T12:32:25;18.30;99.90
1888;DHT22;944;51.574;6.980;2023-08-07T12:46:42;18.20;99.90
1888;DHT22;944;51.574;6.980;2023-08-07T12:57:47;18.50;99.90
1888;DHT22;944;51.574;6.980;2023-08-07T13:18:30;18.80;99.90
1888;DHT22;944;51.574;6.980;2023-08-07T14:13:59;19.00;99.90
1888;DHT22;944;51.574;6.980;2023-08-07T14:16:28;18.90;99.90
1888;DHT22;944;51.574;6.980;2023-08-07T14:22:37;19.00;99.90
1888;DHT22;944;51.574;6.980;2023-08-07T14:25:08;18.90;99.90
1888;DHT22;944;51.574;6.980;2023-08-07T14:27:35;18.80;99.90
1888;DHT22;944;51.574;6.980;2023-08-07T14:30:07;18.60;99.90
1888;DHT22;944;51.574;6.980;2023-08-07T14:33:19;18.80;99.90
1888;DHT22;944;51.574;6.980;2023-08-07T14:35:43;19.00;99.90
1888;DHT22;944;51.574;6.980;2023-08-07T14:38:10;19.50;99.90
1888;DHT22;944;51.574;6.980;2023-08-07T14:40:37;19.60;99.90
1888;DHT22;944;51.574;6.980;2023-08-07T14:43:08;19.60;99.90
1888;DHT22;944;51.574;6.980;2023-08-07T14:45:40;19.20;99.90
1888;DHT22;944;51.574;6.980;2023-08-07T14:48:08;19.20;99.90
1888;DHT22;944;51.574;6.980;2023-08-07T14:50:38;19.10;99.90
1888;DHT22;944;51.574;6.980;2023-08-07T14:53:06;19.20;99.90
1888;DHT22;944;51.574;6.980;2023-08-07T14:55:33;19.20;99.90
1888;DHT22;944;51.574;6.980;2023-08-07T14:58:00;19.10;99.90
1888;DHT22;944;51.574;6.980;2023-08-07T15:00:27;19.30;99.90
1888;DHT22;944;51.574;6.980;2023-08-07T15:02:56;19.40;99.90
1888;DHT22;944;51.574;6.980;2023-08-07T15:05:24;19.40;99.90
1888;DHT22;944;51.574;6.980;2023-08-07T15:07:51;19.20;99.90
1888;DHT22;944;51.574;6.980;2023-08-07T15:10:29;19.10;99.90
1888;DHT22;944;51.574;6.980;2023-08-07T15:13:07;18.90;99.90
1888;DHT22;944;51.574;6.980;2023-08-07T15:19:01;18.90;99.90
1888;DHT22;944;51.574;6.980;2023-08-07T15:21:32;18.80;99.90
1888;DHT22;944;51.574;6.980;2023-08-07T15:24:15;18.70;99.90
1888;DHT22;944;51.574;6.980;2023-08-07T15:26:48;18.80;99.90
1888;DHT22;944;51.574;6.980;2023-08-07T15:29:24;18.60;99.90
1888;DHT22;944;51.574;6.980;2023-08-07T15:32:07;18.50;99.90
1888;DHT22;944;51.574;6.980;2023-08-07T15:34:46;18.40;99.90
1888;DHT22;944;51.574;6.980;2023-08-07T15:37:20;18.30;99.90
1888;DHT22;944;51.574;6.980;2023-08-07T15:40:15;18.20;99.90
1888;DHT22;944;51.574;6.980;2023-08-07T15:43:01;18.20;99.90
1888;DHT22;944;51.574;6.980;2023-08-07T15:45:45;18.20;99.90
1888;DHT22;944;51.574;6.980;2023-08-07T15:48:32;18.40;99.90
1888;DHT22;944;51.574;6.980;2023-08-07T15:51:27;18.20;99.90
1888;DHT22;944;51.574;6.980;2023-08-07T15:54:11;18.50;99.90
1888;DHT22;944;51.574;6.980;2023-08-07T15:56:51;18.50;99.90
1888;DHT22;944;51.574;6.980;2023-08-07T16:03:16;18.40;99.90
1888;DHT22;944;51.574;6.980;2023-08-07T16:05:57;18.30;99.90
1888;DHT22;944;51.574;6.980;2023-08-07T16:08:46;18.30;99.90
1888;DHT22;944;51.574;6.980;2023-08-07T16:11:22;18.40;99.90
1888;DHT22;944;51.574;6.980;2023-08-07T16:14:04;18.50;99.90
1888;DHT22;944;51.574;6.980;2023-08-07T16:34:27;18.20;99.90
1888;DHT22;944;51.574;6.980;2023-08-07T16:40:53;18.10;99.90
1888;DHT22;944;51.574;6.980;2023-08-07T16:43:49;18.10;99.90
1888;DHT22;944;51.574;6.980;2023-08-07T16:47:02;18.00;99.90
1888;DHT22;944;51.574;6.980;2023-08-07T16:53:44;17.80;99.90
1888;DHT22;944;51.574;6.980;2023-08-07T16:56:31;17.70;99.90
1888;DHT22;944;51.574;6.980;2023-08-07T16:59:13;17.90;99.90
1888;DHT22;944;51.574;6.980;2023-08-07T17:01:57;17.90;99.90
1888;DHT22;944;51.574;6.980;2023-08-07T17:04:40;17.90;99.90
1888;DHT22;944;51.574;6.980;2023-08-07T17:07:24;17.90;99.90
1888;DHT22;944;51.574;6.980;2023-08-07T17:10:01;17.80;99.90
1888;DHT22;944;51.574;6.980;2023-08-07T17:12:49;17.80;99.90
1888;DHT22;944;51.574;6.980;2023-08-07T17:15:34;17.70;99.90
1888;DHT22;944;51.574;6.980;2023-08-07T17:18:20;17.60;99.90
1888;DHT22;944;51.574;6.980;2023-08-07T17:21:31;17.50;99.90
1888;DHT22;944;51.574;6.980;2023-08-07T17:24:35;17.50;99.90
1888;DHT22;944;51.574;6.980;2023-08-07T17:27:43;17.30;99.90
1888;DHT22;944;51.574;6.980;2023-08-07T17:30:51;17.20;99.90
1888;DHT22;944;51.574;6.980;2023-08-07T17:33:25;17.00;99.90
1888;DHT22;944;51.574;6.980;2023-08-07T17:35:55;17.00;99.90
1888;DHT22;944;51.574;6.980;2023-08-07T17:38:23;16.90;99.90
1888;DHT22;944;51.574;6.980;2023-08-07T17:40:50;16.80;99.90
1888;DHT22;944;51.574;6.980;2023-08-07T17:43:19;17.00;99.90
1888;DHT22;944;51.574;6.980;2023-08-07T17:45:47;16.90;99.90
1888;DHT22;944;51.574;6.980;2023-08-07T17:48:14;17.00;99.90
1888;DHT22;944;51.574;6.980;2023-08-07T17:50:41;17.00;99.90
1888;DHT22;944;51.574;6.980;2023-08-07T17:53:08;16.90;99.90
1888;DHT22;944;51.574;6.980;2023-08-07T17:55:35;17.00;99.90
1888;DHT22;944;51.574;6.980;2023-08-07T17:58:03;17.00;99.90
1888;DHT22;944;51.574;6.980;2023-08-07T18:00:31;16.90;99.90
1888;DHT22;944;51.574;6.980;2023-08-07T18:02:59;16.90;99.90
1888;DHT22;944;51.574;6.980;2023-08-07T18:09:06;16.80;99.90
1888;DHT22;944;51.574;6.980;2023-08-07T18:11:34;16.70;99.90
1888;DHT22;944;51.574;6.980;2023-08-07T18:14:07;16.60;99.90
1888;DHT22;944;51.574;6.980;2023-08-07T18:16:35;16.50;99.90
1888;DHT22;944;51.574;6.980;2023-08-07T18:19:02;16.50;99.90
1888;DHT22;944;51.574;6.980;2023-08-07T18:21:29;16.50;99.90
1888;DHT22;944;51.574;6.980;2023-08-07T18:23:57;16.30;99.90
1888;DHT22;944;51.574;6.980;2023-08-07T18:26:24;16.20;99.90
1888;DHT22;944;51.574;6.980;2023-08-07T18:28:59;16.20;99.90
1888;DHT22;944;51.574;6.980;2023-08-07T18:31:29;16.30;99.90
1888;DHT22;944;51.574;6.980;2023-08-07T18:34:03;16.10;99.90
1888;DHT22;944;51.574;6.980;2023-08-07T18:36:31;16.00;99.90
1888;DHT22;944;51.574;6.980;2023-08-07T18:39:02;16.00;99.90
1888;DHT22;944;51.574;6.980;2023-08-07T18:41:46;15.90;99.90
1888;DHT22;944;51.574;6.980;2023-08-07T18:44:13;15.90;99.90
1888;DHT22;944;51.574;6.980;2023-08-07T18:46:41;15.80;99.90
1888;DHT22;944;51.574;6.980;2023-08-07T18:49:09;15.80;99.90
1888;DHT22;944;51.574;6.980;2023-08-07T18:51:36;15.70;99.90
1888;DHT22;944;51.574;6.980;2023-08-07T18:54:04;15.70;99.90
1888;DHT22;944;51.574;6.980;2023-08-07T18:56:31;15.60;99.90
1888;DHT22;944;51.574;6.980;2023-08-07T18:58:59;15.50;99.90
1888;DHT22;944;51.574;6.980;2023-08-07T19:01:28;15.50;99.90
1888;DHT22;944;51.574;6.980;2023-08-07T19:03:56;15.40;99.90
1888;DHT22;944;51.574;6.980;2023-08-07T19:06:27;15.40;99.90
1888;DHT22;944;51.574;6.980;2023-08-07T19:08:56;15.50;99.90
1888;DHT22;944;51.574;6.980;2023-08-07T19:11:27;15.50;99.90
1888;DHT22;944;51.574;6.980;2023-08-07T19:14:17;15.40;99.90
1888;DHT22;944;51.574;6.980;2023-08-07T19:16:57;15.50;99.90
1888;DHT22;944;51.574;6.980;2023-08-07T19:20:11;15.40;99.90
1888;DHT22;944;51.574;6.980;2023-08-07T19:22:54;15.40;99.90
1888;DHT22;944;51.574;6.980;2023-08-07T19:25:29;15.40;99.90
1888;DHT22;944;51.574;6.980;2023-08-07T19:28:23;15.20;99.90
1888;DHT22;944;51.574;6.980;2023-08-07T19:31:05;15.10;99.90
1888;DHT22;944;51.574;6.980;2023-08-07T19:34:02;15.10;99.90
1888;DHT22;944;51.574;6.980;2023-08-07T19:39:53;14.90;99.90
1888;DHT22;944;51.574;6.980;2023-08-07T19:42:39;14.90;99.90
1888;DHT22;944;51.574;6.980;2023-08-07T19:45:36;14.80;99.90
1888;DHT22;944;51.574;6.980;2023-08-07T19:48:25;14.70;99.90
1888;DHT22;944;51.574;6.980;2023-08-07T19:51:18;14.60;99.90
1888;DHT22;944;51.574;6.980;2023-08-07T19:57:41;14.40;99.90
1888;DHT22;944;51.574;6.980;2023-08-07T20:00:27;14.40;99.90
1888;DHT22;944;51.574;6.980;2023-08-07T20:03:08;14.50;99.90
1888;DHT22;944;51.574;6.980;2023-08-07T20:05:42;14.30;99.90
1888;DHT22;944;51.574;6.980;2023-08-07T20:08:28;14.40;99.90
1888;DHT22;944;51.574;6.980;2023-08-07T20:11:06;14.20;99.90
1888;DHT22;944;51.574;6.980;2023-08-07T20:13:40;14.20;1.00
1888;DHT22;944;51.574;6.980;2023-08-07T20:16:14;14.20;1.00
1888;DHT22;944;51.574;6.980;2023-08-07T20:18:53;14.10;1.00
1888;DHT22;944;51.574;6.980;2023-08-07T20:21:29;14.10;1.00
1888;DHT22;944;51.574;6.980;2023-08-07T20:24:01;14.20;1.00
1888;DHT22;944;51.574;6.980;2023-08-07T20:26:43;14.10;1.00
1888;DHT22;944;51.574;6.980;2023-08-07T20:29:25;14.00;1.00
1888;DHT22;944;51.574;6.980;2023-08-07T20:32:02;14.10;1.00
1888;DHT22;944;51.574;6.980;2023-08-07T20:34:50;14.10;1.00
1888;DHT22;944;51.574;6.980;2023-08-07T20:37:27;14.10;1.00
1888;DHT22;944;51.574;6.980;2023-08-07T20:40:03;14.10;1.00
1888;DHT22;944;51.574;6.980;2023-08-07T20:42:46;14.00;1.00
1888;DHT22;944;51.574;6.980;2023-08-07T20:45:20;14.00;1.00
1888;DHT22;944;51.574;6.980;2023-08-07T20:48:18;13.90;1.00
1888;DHT22;944;51.574;6.980;2023-08-07T20:50:50;14.00;1.00
1888;DHT22;944;51.574;6.980;2023-08-07T20:53:30;14.00;1.00
1888;DHT22;944;51.574;6.980;2023-08-07T20:56:22;14.00;1.00
1888;DHT22;944;51.574;6.980;2023-08-07T21:01:59;14.10;1.00
1888;DHT22;944;51.574;6.980;2023-08-07T21:04:47;14.10;1.00
1888;DHT22;944;51.574;6.980;2023-08-07T21:07:40;14.00;1.00
1888;DHT22;944;51.574;6.980;2023-08-07T21:10:25;14.00;1.00
1888;DHT22;944;51.574;6.980;2023-08-07T21:12:59;14.00;1.00
1888;DHT22;944;51.574;6.980;2023-08-07T21:15:56;13.90;1.00
1888;DHT22;944;51.574;6.980;2023-08-07T21:18:36;13.90;1.00
1888;DHT22;944;51.574;6.980;2023-08-07T21:21:11;13.90;1.00
1888;DHT22;944;51.574;6.980;2023-08-07T21:23:42;13.90;1.00
1888;DHT22;944;51.574;6.980;2023-08-07T21:26:13;13.90;1.00
1888;DHT22;944;51.574;6.980;2023-08-07T21:29:05;13.70;1.00
1888;DHT22;944;51.574;6.980;2023-08-07T21:31:54;13.80;1.00
1888;DHT22;944;51.574;6.980;2023-08-07T21:34:58;13.80;5.10
1888;DHT22;944;51.574;6.980;2023-08-07T21:37:55;13.80;23.40
1888;DHT22;944;51.574;6.980;2023-08-07T21:44:21;13.80;1.00
1888;DHT22;944;51.574;6.980;2023-08-07T21:47:13;14.00;1.00
1888;DHT22;944;51.574;6.980;2023-08-07T22:11:45;13.90;1.00
1888;DHT22;944;51.574;6.980;2023-08-07T22:14:30;13.90;1.00
1888;DHT22;944;51.574;6.980;2023-08-07T22:31:46;13.90;48.50
1888;DHT22;944;51.574;6.980;2023-08-07T22:35:25;14.00;27.00
1888;DHT22;944;51.574;6.980;2023-08-07T22:41:59;13.90;15.70
1888;DHT22;944;51.574;6.980;2023-08-07T22:56:02;14.00;8.20
1888;DHT22;944;51.574;6.980;2023-08-07T22:59:11;14.00;1.00
1888;DHT22;944;51.574;6.980;2023-08-07T23:02:14;14.00;1.00
1888;DHT22;944;51.574;6.980;2023-08-07T23:05:11;14.10;1.00
1888;DHT22;944;51.574;6.980;2023-08-07T23:08:37;14.10;1.00
1888;DHT22;944;51.574;6.980;2023-08-07T23:17:35;14.20;1.00
1888;DHT22;944;51.574;6.980;2023-08-07T23:20:27;14.20;1.00
1888;DHT22;944;51.574;6.980;2023-08-07T23:23:16;14.30;1.00
1888;DHT22;944;51.574;6.980;2023-08-07T23:25:57;14.30;1.00
1888;DHT22;944;51.574;6.980;2023-08-07T23:28:44;14.20;1.00
1888;DHT22;944;51.574;6.980;2023-08-07T23:35:20;14.30;1.00
1888;DHT22;944;51.574;6.980;2023-08-07T23:38:19;14.30;1.00
1888;DHT22;944;51.574;6.980;2023-08-07T23:41:05;14.30;1.00
1888;DHT22;944;51.574;6.980;2023-08-07T23:43:47;14.30;1.00
1888;DHT22;944;51.574;6.980;2023-08-07T23:46:41;14.30;1.00
1888;DHT22;944;51.574;6.980;2023-08-07T23:49:26;14.20;1.00
1888;DHT22;944;51.574;6.980;2023-08-07T23:52:04;14.40;1.00
1888;DHT22;944;51.574;6.980;2023-08-07T23:54:48;14.40;1.00
1888;DHT22;944;51.574;6.980;2023-08-07T23:57:28;14.50;1.00
